sensor_id;sensor_type;location;lat;lon;timestamp;temperature;humidity
37938;DHT22;23763;48.130;11.602;2023-10-19T00:03:02;9.00;99.90
37938;DHT22;23763;48.130;11.602;2023-10-19T00:05:29;9.00;99.90
37938;DHT22;23763;48.130;11.602;2023-10-19T00:07:56;9.00;99.90
37938;DHT22;23763;48.130;11.602;2023-10-19T00:10:26;9.10;99.90
37938;DHT22;23763;48.130;11.602;2023-10-19T00:12:56;9.10;99.90
37938;DHT22;23763;48.130;11.602;2023-10-19T00:15:26;9.10;99.90
37938;DHT22;23763;48.130;11.602;2023-10-19T00:17:56;9.00;99.90
37938;DHT22;23763;48.130;11.602;2023-10-19T00:20:21;9.00;99.90
37938;DHT22;23763;48.130;11.602;2023-10-19T00:23:16;9.10;99.90
37938;DHT22;23763;48.130;11.602;2023-10-19T00:25:54;9.10;99.90
37938;DHT22;23763;48.130;11.602;2023-10-19T00:28:20;9.10;99.90
37938;DHT22;23763;48.130;11.602;2023-10-19T00:30:48;9.10;99.90
37938;DHT22;23763;48.130;11.602;2023-10-19T00:33:16;9.10;99.90
37938;DHT22;23763;48.130;11.602;2023-10-19T00:35:44;9.10;99.90
37938;DHT22;23763;48.130;11.602;2023-10-19T00:38:33;9.10;99.90
37938;DHT22;23763;48.130;11.602;2023-10-19T00:41:01;9.10;99.90
37938;DHT22;23763;48.130;11.602;2023-10-19T00:43:38;9.10;99.90
37938;DHT22;23763;48.130;11.602;2023-10-19T00:46:16;9.10;99.90
37938;DHT22;23763;48.130;11.602;2023-10-19T00:48:48;9.20;99.90
37938;DHT22;23763;48.130;11.602;2023-10-19T00:51:16;9.30;99.90
37938;DHT22;23763;48.130;11.602;2023-10-19T00:54:06;9.30;99.90
37938;DHT22;23763;48.130;11.602;2023-10-19T00:56:37;9.20;99.90
37938;DHT22;23763;48.130;11.602;2023-10-19T00:59:03;9.20;99.90
37938;DHT22;23763;48.130;11.602;2023-10-19T01:01:41;9.20;99.90
37938;DHT22;23763;48.130;11.602;2023-10-19T01:04:11;9.30;99.90
37938;DHT22;23763;48.130;11.602;2023-10-19T01:06:41;9.30;99.90
37938;DHT22;23763;48.130;11.602;2023-10-19T01:09:23;9.30;99.90
37938;DHT22;23763;48.130;11.602;2023-10-19T01:11:52;9.20;99.90
37938;DHT22;23763;48.130;11.602;2023-10-19T01:14:21;9.30;99.90
37938;DHT22;23763;48.130;11.602;2023-10-19T01:16:47;9.20;99.90
37938;DHT22;23763;48.130;11.602;2023-10-19T01:19:15;9.20;99.90
37938;DHT22;23763;48.130;11.602;2023-10-19T01:21:44;9.20;99.90
37938;DHT22;23763;48.130;11.602;2023-10-19T01:24:17;9.30;99.90
37938;DHT22;23763;48.130;11.602;2023-10-19T01:26:42;9.30;99.90
37938;DHT22;23763;48.130;11.602;2023-10-19T01:29:08;9.30;99.90
37938;DHT22;23763;48.130;11.602;2023-10-19T01:31:42;9.30;99.90
37938;DHT22;23763;48.130;11.602;2023-10-19T01:34:21;9.50;99.90
37938;DHT22;23763;48.130;11.602;2023-10-19T01:36:47;9.50;99.90
37938;DHT22;23763;48.130;11.602;2023-10-19T01:39:16;9.50;99.90
37938;DHT22;23763;48.130;11.602;2023-10-19T01:41:44;9.50;99.90
37938;DHT22;23763;48.130;11.602;2023-10-19T01:44:10;9.60;99.90
37938;DHT22;23763;48.130;11.602;2023-10-19T01:46:39;9.50;99.90
37938;DHT22;23763;48.130;11.602;2023-10-19T01:49:05;9.60;99.90
37938;DHT22;23763;48.130;11.602;2023-10-19T01:51:34;9.50;99.90
37938;DHT22;23763;48.130;11.602;2023-10-19T01:54:04;9.50;99.90
37938;DHT22;23763;48.130;11.602;2023-10-19T01:56:30;9.50;99.90
37938;DHT22;23763;48.130;11.602;2023-10-19T01:58:56;9.60;99.90
37938;DHT22;23763;48.130;11.602;2023-10-19T02:01:23;9.60;99.90
37938;DHT22;23763;48.130;11.602;2023-10-19T02:03:52;9.60;99.90
37938;DHT22;23763;48.130;11.602;2023-10-19T02:06:21;9.50;99.90
37938;DHT22;23763;48.130;11.602;2023-10-19T02:11:56;9.60;99.90
37938;DHT22;23763;48.130;11.602;2023-10-19T02:14:23;9.60;99.90
37938;DHT22;23763;48.130;11.602;2023-10-19T02:16:54;9.70;99.90
37938;DHT22;23763;48.130;11.602;2023-10-19T02:19:25;9.70;99.90
37938;DHT22;23763;48.130;11.602;2023-10-19T02:22:01;9.70;99.90
37938;DHT22;23763;48.130;11.602;2023-10-19T02:24:33;9.70;99.90
37938;DHT22;23763;48.130;11.602;2023-10-19T02:26:59;9.70;99.90
37938;DHT22;23763;48.130;11.602;2023-10-19T02:29:26;9.70;99.90
37938;DHT22;23763;48.130;11.602;2023-10-19T02:31:52;9.80;99.90
37938;DHT22;23763;48.130;11.602;2023-10-19T02:34:19;9.80;99.90
37938;DHT22;23763;48.130;11.602;2023-10-19T02:36:46;9.80;99.90
37938;DHT22;23763;48.130;11.602;2023-10-19T02:39:14;9.80;99.90
37938;DHT22;23763;48.130;11.602;2023-10-19T02:41:41;9.90;99.90
37938;DHT22;23763;48.130;11.602;2023-10-19T02:44:09;9.80;99.90
37938;DHT22;23763;48.130;11.602;2023-10-19T02:46:36;9.80;99.90
37938;DHT22;23763;48.130;11.602;2023-10-19T02:49:05;9.80;99.90
37938;DHT22;23763;48.130;11.602;2023-10-19T02:51:41;9.80;99.90
37938;DHT22;23763;48.130;11.602;2023-10-19T02:54:10;9.80;99.90
37938;DHT22;23763;48.130;11.602;2023-10-19T02:56:45;9.80;99.90
37938;DHT22;23763;48.130;11.602;2023-10-19T02:59:15;9.80;99.90
37938;DHT22;23763;48.130;11.602;2023-10-19T03:01:42;9.80;99.90
37938;DHT22;23763;48.130;11.602;2023-10-19T03:04:10;9.80;99.90
37938;DHT22;23763;48.130;11.602;2023-10-19T03:06:38;9.80;99.90
37938;DHT22;23763;48.130;11.602;2023-10-19T03:09:07;9.80;99.90
37938;DHT22;23763;48.130;11.602;2023-10-19T03:11:40;9.70;99.90
37938;DHT22;23763;48.130;11.602;2023-10-19T03:14:07;9.60;99.90
37938;DHT22;23763;48.130;11.602;2023-10-19T03:16:34;9.70;99.90
37938;DHT22;23763;48.130;11.602;2023-10-19T03:19:00;9.70;99.90
37938;DHT22;23763;48.130;11.602;2023-10-19T03:21:26;9.60;99.90
37938;DHT22;23763;48.130;11.602;2023-10-19T03:23:58;9.70;99.90
37938;DHT22;23763;48.130;11.602;2023-10-19T03:26:27;9.70;99.90
37938;DHT22;23763;48.130;11.602;2023-10-19T03:28:56;9.60;99.90
37938;DHT22;23763;48.130;11.602;2023-10-19T03:31:26;9.60;99.90
37938;DHT22;23763;48.130;11.602;2023-10-19T03:33:52;9.60;99.90
37938;DHT22;23763;48.130;11.602;2023-10-19T03:36:24;9.70;99.90
37938;DHT22;23763;48.130;11.602;2023-10-19T03:38:51;9.70;99.90
37938;DHT22;23763;48.130;11.602;2023-10-19T03:41:21;9.80;99.90
37938;DHT22;23763;48.130;11.602;2023-10-19T03:43:49;9.80;99.90
37938;DHT22;23763;48.130;11.602;2023-10-19T03:46:17;9.80;99.90
37938;DHT22;23763;48.130;11.602;2023-10-19T03:48:59;9.80;99.90
37938;DHT22;23763;48.130;11.602;2023-10-19T03:51:28;9.90;99.90
37938;DHT22;23763;48.130;11.602;2023-10-19T03:54:05;9.80;99.90
37938;DHT22;23763;48.130;11.602;2023-10-19T03:56:46;9.80;99.90
37938;DHT22;23763;48.130;11.602;2023-10-19T03:59:13;9.90;99.90
37938;DHT22;23763;48.130;11.602;2023-10-19T04:01:41;9.80;99.90
37938;DHT22;23763;48.130;11.602;2023-10-19T04:04:09;9.80;99.90
37938;DHT22;23763;48.130;11.602;2023-10-19T04:06:35;9.80;99.90
37938;DHT22;23763;48.130;11.602;2023-10-19T04:09:01;9.80;99.90
37938;DHT22;23763;48.130;11.602;2023-10-19T04:11:26;9.80;99.90
37938;DHT22;23763;48.130;11.602;2023-10-19T04:13:59;9.80;99.90
37938;DHT22;23763;48.130;11.602;2023-10-19T04:16:29;9.80;99.90
37938;DHT22;23763;48.130;11.602;2023-10-19T04:18:55;9.90;99.90
37938;DHT22;23763;48.130;11.602;2023-10-19T04:21:20;9.90;99.90
37938;DHT22;23763;48.130;11.602;2023-10-19T04:23:46;10.00;99.90
37938;DHT22;23763;48.130;11.602;2023-10-19T04:26:12;10.00;99.90
37938;DHT22;23763;48.130;11.602;2023-10-19T04:28:40;10.10;99.90
37938;DHT22;23763;48.130;11.602;2023-10-19T04:31:17;10.10;99.90
37938;DHT22;23763;48.130;11.602;2023-10-19T04:33:44;10.10;99.90
37938;DHT22;23763;48.130;11.602;2023-10-19T04:36:14;10.20;99.90
37938;DHT22;23763;48.130;11.602;2023-10-19T04:38:40;10.10;99.90
37938;DHT22;23763;48.130;11.602;2023-10-19T04:41:10;10.20;99.90
37938;DHT22;23763;48.130;11.602;2023-10-19T04:43:36;10.20;99.90
37938;DHT22;23763;48.130;11.602;2023-10-19T04:46:09;10.30;99.90
37938;DHT22;23763;48.130;11.602;2023-10-19T04:48:37;10.30;99.90
37938;DHT22;23763;48.130;11.602;2023-10-19T04:51:08;10.30;99.90
37938;DHT22;23763;48.130;11.602;2023-10-19T04:53:37;10.30;99.90
37938;DHT22;23763;48.130;11.602;2023-10-19T04:56:03;10.30;99.90
37938;DHT22;23763;48.130;11.602;2023-10-19T04:58:30;10.40;99.90
37938;DHT22;23763;48.130;11.602;2023-10-19T05:00:55;10.40;99.90
37938;DHT22;23763;48.130;11.602;2023-10-19T05:03:27;10.40;99.90
37938;DHT22;23763;48.130;11.602;2023-10-19T05:05:54;10.40;99.90
37938;DHT22;23763;48.130;11.602;2023-10-19T05:08:20;10.40;99.90
37938;DHT22;23763;48.130;11.602;2023-10-19T05:10:46;10.40;99.90
37938;DHT22;23763;48.130;11.602;2023-10-19T05:13:12;10.40;99.90
37938;DHT22;23763;48.130;11.602;2023-10-19T05:15:37;10.30;99.90
37938;DHT22;23763;48.130;11.602;2023-10-19T05:18:04;10.30;99.90
37938;DHT22;23763;48.130;11.602;2023-10-19T05:20:30;10.40;99.90
37938;DHT22;23763;48.130;11.602;2023-10-19T05:22:56;10.40;99.90
37938;DHT22;23763;48.130;11.602;2023-10-19T05:25:23;10.40;99.90
37938;DHT22;23763;48.130;11.602;2023-10-19T05:27:48;10.40;99.90
37938;DHT22;23763;48.130;11.602;2023-10-19T05:30:14;10.40;99.90
37938;DHT22;23763;48.130;11.602;2023-10-19T05:32:40;10.40;99.90
37938;DHT22;23763;48.130;11.602;2023-10-19T05:35:06;10.40;99.90
37938;DHT22;23763;48.130;11.602;2023-10-19T05:37:31;10.40;99.90
37938;DHT22;23763;48.130;11.602;2023-10-19T05:39:57;10.40;99.90
37938;DHT22;23763;48.130;11.602;2023-10-19T05:42:23;10.40;99.90
37938;DHT22;23763;48.130;11.602;2023-10-19T05:44:50;10.30;99.90
37938;DHT22;23763;48.130;11.602;2023-10-19T05:47:17;10.40;99.90
37938;DHT22;23763;48.130;11.602;2023-10-19T05:49:42;10.40;99.90
37938;DHT22;23763;48.130;11.602;2023-10-19T05:52:08;10.40;99.90
37938;DHT22;23763;48.130;11.602;2023-10-19T05:54:34;10.40;99.90
37938;DHT22;23763;48.130;11.602;2023-10-19T05:57:01;10.40;99.90
37938;DHT22;23763;48.130;11.602;2023-10-19T05:59:27;10.40;99.90
37938;DHT22;23763;48.130;11.602;2023-10-19T06:01:54;10.40;99.90
37938;DHT22;23763;48.130;11.602;2023-10-19T06:04:20;10.60;99.90
37938;DHT22;23763;48.130;11.602;2023-10-19T06:06:46;10.50;99.90
37938;DHT22;23763;48.130;11.602;2023-10-19T06:09:11;10.60;99.90
37938;DHT22;23763;48.130;11.602;2023-10-19T06:11:37;10.60;99.90
37938;DHT22;23763;48.130;11.602;2023-10-19T06:14:08;10.60;99.90
37938;DHT22;23763;48.130;11.602;2023-10-19T06:16:35;10.60;99.90
37938;DHT22;23763;48.130;11.602;2023-10-19T06:19:00;10.70;99.90
37938;DHT22;23763;48.130;11.602;2023-10-19T06:21:26;10.70;99.90
37938;DHT22;23763;48.130;11.602;2023-10-19T06:23:52;10.70;99.90
37938;DHT22;23763;48.130;11.602;2023-10-19T06:26:19;10.70;99.90
37938;DHT22;23763;48.130;11.602;2023-10-19T06:28:45;10.70;99.90
37938;DHT22;23763;48.130;11.602;2023-10-19T06:31:10;10.80;99.90
37938;DHT22;23763;48.130;11.602;2023-10-19T06:33:36;10.80;99.90
37938;DHT22;23763;48.130;11.602;2023-10-19T06:36:06;10.80;99.90
37938;DHT22;23763;48.130;11.602;2023-10-19T06:38:32;10.90;99.90
37938;DHT22;23763;48.130;11.602;2023-10-19T06:40:59;11.00;99.90
37938;DHT22;23763;48.130;11.602;2023-10-19T06:43:24;11.10;99.90
37938;DHT22;23763;48.130;11.602;2023-10-19T06:45:54;11.20;99.90
37938;DHT22;23763;48.130;11.602;2023-10-19T06:48:20;11.30;99.90
37938;DHT22;23763;48.130;11.602;2023-10-19T06:50:46;11.40;99.90
37938;DHT22;23763;48.130;11.602;2023-10-19T06:53:12;11.40;99.90
37938;DHT22;23763;48.130;11.602;2023-10-19T06:55:37;11.50;99.90
37938;DHT22;23763;48.130;11.602;2023-10-19T06:58:03;11.50;99.90
37938;DHT22;23763;48.130;11.602;2023-10-19T07:00:30;11.50;99.90
37938;DHT22;23763;48.130;11.602;2023-10-19T07:02:57;11.50;99.90
37938;DHT22;23763;48.130;11.602;2023-10-19T07:05:23;11.60;99.90
37938;DHT22;23763;48.130;11.602;2023-10-19T07:07:55;11.70;99.90
37938;DHT22;23763;48.130;11.602;2023-10-19T07:10:22;11.70;99.90
37938;DHT22;23763;48.130;11.602;2023-10-19T07:12:51;11.80;99.90
37938;DHT22;23763;48.130;11.602;2023-10-19T07:15:17;11.90;99.90
37938;DHT22;23763;48.130;11.602;2023-10-19T07:17:47;12.00;99.90
37938;DHT22;23763;48.130;11.602;2023-10-19T07:20:16;12.10;99.90
37938;DHT22;23763;48.130;11.602;2023-10-19T07:22:51;12.20;99.90
37938;DHT22;23763;48.130;11.602;2023-10-19T07:25:17;12.40;99.90
37938;DHT22;23763;48.130;11.602;2023-10-19T07:27:47;12.50;99.90
37938;DHT22;23763;48.130;11.602;2023-10-19T07:30:13;12.80;99.90
37938;DHT22;23763;48.130;11.602;2023-10-19T07:32:41;12.90;99.90
37938;DHT22;23763;48.130;11.602;2023-10-19T07:35:07;13.00;99.90
37938;DHT22;23763;48.130;11.602;2023-10-19T07:37:32;13.20;99.90
37938;DHT22;23763;48.130;11.602;2023-10-19T07:39:58;13.30;99.90
37938;DHT22;23763;48.130;11.602;2023-10-19T07:42:24;13.40;99.90
37938;DHT22;23763;48.130;11.602;2023-10-19T07:44:51;13.50;99.90
37938;DHT22;23763;48.130;11.602;2023-10-19T07:47:17;13.60;99.90
37938;DHT22;23763;48.130;11.602;2023-10-19T07:49:42;13.50;99.90
37938;DHT22;23763;48.130;11.602;2023-10-19T07:52:08;13.60;99.90
37938;DHT22;23763;48.130;11.602;2023-10-19T07:54:37;13.70;99.90
37938;DHT22;23763;48.130;11.602;2023-10-19T07:57:03;13.80;99.90
37938;DHT22;23763;48.130;11.602;2023-10-19T07:59:35;13.90;99.90
37938;DHT22;23763;48.130;11.602;2023-10-19T08:02:01;14.00;99.90
37938;DHT22;23763;48.130;11.602;2023-10-19T08:04:28;14.00;99.90
37938;DHT22;23763;48.130;11.602;2023-10-19T08:06:55;14.10;99.90
37938;DHT22;23763;48.130;11.602;2023-10-19T08:09:21;14.10;99.90
37938;DHT22;23763;48.130;11.602;2023-10-19T08:11:55;14.10;99.90
37938;DHT22;23763;48.130;11.602;2023-10-19T08:14:24;14.20;99.90
37938;DHT22;23763;48.130;11.602;2023-10-19T08:16:50;14.20;99.90
37938;DHT22;23763;48.130;11.602;2023-10-19T08:19:16;14.30;99.90
37938;DHT22;23763;48.130;11.602;2023-10-19T08:21:42;14.50;99.90
37938;DHT22;23763;48.130;11.602;2023-10-19T08:24:08;14.50;99.90
37938;DHT22;23763;48.130;11.602;2023-10-19T08:26:40;14.70;99.90
37938;DHT22;23763;48.130;11.602;2023-10-19T08:29:07;14.90;99.90
37938;DHT22;23763;48.130;11.602;2023-10-19T08:31:41;15.00;99.90
37938;DHT22;23763;48.130;11.602;2023-10-19T08:34:08;15.20;99.90
37938;DHT22;23763;48.130;11.602;2023-10-19T08:36:40;15.30;99.90
37938;DHT22;23763;48.130;11.602;2023-10-19T08:39:07;15.30;99.90
37938;DHT22;23763;48.130;11.602;2023-10-19T08:41:36;15.40;99.90
37938;DHT22;23763;48.130;11.602;2023-10-19T08:44:04;15.60;99.90
37938;DHT22;23763;48.130;11.602;2023-10-19T08:46:38;15.60;99.90
37938;DHT22;23763;48.130;11.602;2023-10-19T08:49:05;15.70;99.90
37938;DHT22;23763;48.130;11.602;2023-10-19T08:51:35;15.60;99.90
37938;DHT22;23763;48.130;11.602;2023-10-19T08:54:03;15.60;99.90
37938;DHT22;23763;48.130;11.602;2023-10-19T08:56:31;15.60;99.90
37938;DHT22;23763;48.130;11.602;2023-10-19T08:58:58;15.60;99.90
37938;DHT22;23763;48.130;11.602;2023-10-19T09:01:24;15.60;99.90
37938;DHT22;23763;48.130;11.602;2023-10-19T09:03:50;15.70;99.90
37938;DHT22;23763;48.130;11.602;2023-10-19T09:06:16;15.70;99.90
37938;DHT22;23763;48.130;11.602;2023-10-19T09:08:42;15.70;99.90
37938;DHT22;23763;48.130;11.602;2023-10-19T09:11:11;15.70;99.90
37938;DHT22;23763;48.130;11.602;2023-10-19T09:13:46;15.80;99.90
37938;DHT22;23763;48.130;11.602;2023-10-19T09:16:14;15.80;99.90
37938;DHT22;23763;48.130;11.602;2023-10-19T09:18:39;15.80;99.90
37938;DHT22;23763;48.130;11.602;2023-10-19T09:21:07;15.90;99.90
37938;DHT22;23763;48.130;11.602;2023-10-19T09:23:34;16.00;99.90
37938;DHT22;23763;48.130;11.602;2023-10-19T09:26:01;16.00;99.90
37938;DHT22;23763;48.130;11.602;2023-10-19T09:28:31;15.90;99.90
37938;DHT22;23763;48.130;11.602;2023-10-19T09:31:00;15.90;99.90
37938;DHT22;23763;48.130;11.602;2023-10-19T09:33:27;15.80;99.90
37938;DHT22;23763;48.130;11.602;2023-10-19T09:35:54;15.70;99.90
37938;DHT22;23763;48.130;11.602;2023-10-19T09:38:22;15.70;99.90
37938;DHT22;23763;48.130;11.602;2023-10-19T09:40:49;15.70;99.90
37938;DHT22;23763;48.130;11.602;2023-10-19T09:43:35;15.60;99.90
37938;DHT22;23763;48.130;11.602;2023-10-19T09:46:06;15.60;99.90
37938;DHT22;23763;48.130;11.602;2023-10-19T09:48:41;15.50;99.90
37938;DHT22;23763;48.130;11.602;2023-10-19T09:51:11;15.50;99.90
37938;DHT22;23763;48.130;11.602;2023-10-19T09:53:38;15.60;99.90
37938;DHT22;23763;48.130;11.602;2023-10-19T09:56:08;15.70;99.90
37938;DHT22;23763;48.130;11.602;2023-10-19T09:58:51;15.80;99.90
37938;DHT22;23763;48.130;11.602;2023-10-19T10:01:18;16.00;99.90
37938;DHT22;23763;48.130;11.602;2023-10-19T10:03:53;16.10;99.90
37938;DHT22;23763;48.130;11.602;2023-10-19T10:06:30;16.40;99.90
37938;DHT22;23763;48.130;11.602;2023-10-19T10:08:59;16.70;99.90
37938;DHT22;23763;48.130;11.602;2023-10-19T10:11:26;17.00;99.90
37938;DHT22;23763;48.130;11.602;2023-10-19T10:13:54;17.30;99.90
37938;DHT22;23763;48.130;11.602;2023-10-19T10:16:25;17.40;99.90
37938;DHT22;23763;48.130;11.602;2023-10-19T10:18:55;17.40;99.90
37938;DHT22;23763;48.130;11.602;2023-10-19T10:21:22;17.40;99.90
37938;DHT22;23763;48.130;11.602;2023-10-19T10:24:03;17.30;99.90
37938;DHT22;23763;48.130;11.602;2023-10-19T10:26:31;17.10;99.90
37938;DHT22;23763;48.130;11.602;2023-10-19T10:29:22;17.10;99.90
37938;DHT22;23763;48.130;11.602;2023-10-19T10:31:49;17.10;99.90
37938;DHT22;23763;48.130;11.602;2023-10-19T10:37:01;17.30;99.90
37938;DHT22;23763;48.130;11.602;2023-10-19T10:39:31;17.50;99.90
37938;DHT22;23763;48.130;11.602;2023-10-19T10:42:01;17.60;99.90
37938;DHT22;23763;48.130;11.602;2023-10-19T10:44:47;17.70;99.90
37938;DHT22;23763;48.130;11.602;2023-10-19T10:47:20;17.50;99.90
37938;DHT22;23763;48.130;11.602;2023-10-19T10:49:56;17.60;99.90
37938;DHT22;23763;48.130;11.602;2023-10-19T10:52:32;17.50;99.90
37938;DHT22;23763;48.130;11.602;2023-10-19T10:55:11;17.50;99.90
37938;DHT22;23763;48.130;11.602;2023-10-19T10:57:38;17.60;99.90
37938;DHT22;23763;48.130;11.602;2023-10-19T11:00:22;17.70;99.90
37938;DHT22;23763;48.130;11.602;2023-10-19T11:03:06;17.90;99.90
37938;DHT22;23763;48.130;11.602;2023-10-19T11:05:38;18.00;99.90
37938;DHT22;23763;48.130;11.602;2023-10-19T11:08:09;18.20;99.90
37938;DHT22;23763;48.130;11.602;2023-10-19T11:10:35;18.30;99.90
37938;DHT22;23763;48.130;11.602;2023-10-19T11:13:03;18.40;99.90
37938;DHT22;23763;48.130;11.602;2023-10-19T11:15:29;18.50;99.90
37938;DHT22;23763;48.130;11.602;2023-10-19T11:17:56;18.60;99.90
37938;DHT22;23763;48.130;11.602;2023-10-19T11:20:24;18.70;99.90
37938;DHT22;23763;48.130;11.602;2023-10-19T11:22:51;18.50;99.90
37938;DHT22;23763;48.130;11.602;2023-10-19T11:25:19;18.70;99.90
37938;DHT22;23763;48.130;11.602;2023-10-19T11:27:46;18.80;99.90
37938;DHT22;23763;48.130;11.602;2023-10-19T11:30:13;18.80;99.90
37938;DHT22;23763;48.130;11.602;2023-10-19T11:32:39;18.80;99.90
37938;DHT22;23763;48.130;11.602;2023-10-19T11:35:06;18.50;99.90
37938;DHT22;23763;48.130;11.602;2023-10-19T11:37:51;18.40;99.90
37938;DHT22;23763;48.130;11.602;2023-10-19T11:40:21;18.40;99.90
37938;DHT22;23763;48.130;11.602;2023-10-19T11:42:48;18.40;99.90
37938;DHT22;23763;48.130;11.602;2023-10-19T11:45:14;18.30;99.90
37938;DHT22;23763;48.130;11.602;2023-10-19T11:47:42;18.20;99.90
37938;DHT22;23763;48.130;11.602;2023-10-19T11:50:08;18.10;99.90
37938;DHT22;23763;48.130;11.602;2023-10-19T11:52:33;18.00;99.90
37938;DHT22;23763;48.130;11.602;2023-10-19T11:54:59;17.90;99.90
37938;DHT22;23763;48.130;11.602;2023-10-19T11:57:25;17.80;99.90
37938;DHT22;23763;48.130;11.602;2023-10-19T11:59:51;17.70;99.90
37938;DHT22;23763;48.130;11.602;2023-10-19T12:02:19;17.70;99.90
37938;DHT22;23763;48.130;11.602;2023-10-19T12:04:46;17.70;99.90
37938;DHT22;23763;48.130;11.602;2023-10-19T12:07:11;17.60;99.90
37938;DHT22;23763;48.130;11.602;2023-10-19T12:09:37;17.70;99.90
37938;DHT22;23763;48.130;11.602;2023-10-19T12:12:03;17.80;99.90
37938;DHT22;23763;48.130;11.602;2023-10-19T12:14:32;17.80;99.90
37938;DHT22;23763;48.130;11.602;2023-10-19T12:17:00;17.90;99.90
37938;DHT22;23763;48.130;11.602;2023-10-19T12:19:29;18.00;99.90
37938;DHT22;23763;48.130;11.602;2023-10-19T12:21:55;18.10;99.90
37938;DHT22;23763;48.130;11.602;2023-10-19T12:24:21;18.20;99.90
37938;DHT22;23763;48.130;11.602;2023-10-19T12:26:47;18.10;99.90
37938;DHT22;23763;48.130;11.602;2023-10-19T12:29:12;18.00;99.90
37938;DHT22;23763;48.130;11.602;2023-10-19T12:31:40;17.90;99.90
37938;DHT22;23763;48.130;11.602;2023-10-19T12:34:09;17.70;99.90
37938;DHT22;23763;48.130;11.602;2023-10-19T12:36:37;17.70;99.90
37938;DHT22;23763;48.130;11.602;2023-10-19T12:39:03;17.80;99.90
37938;DHT22;23763;48.130;11.602;2023-10-19T12:41:32;17.90;99.90
37938;DHT22;23763;48.130;11.602;2023-10-19T12:43:58;18.10;99.90
37938;DHT22;23763;48.130;11.602;2023-10-19T12:46:26;18.40;99.90
37938;DHT22;23763;48.130;11.602;2023-10-19T12:48:55;18.60;99.90
37938;DHT22;23763;48.130;11.602;2023-10-19T12:51:24;18.60;99.90
37938;DHT22;23763;48.130;11.602;2023-10-19T12:53:54;18.50;99.90
37938;DHT22;23763;48.130;11.602;2023-10-19T12:56:21;18.50;99.90
37938;DHT22;23763;48.130;11.602;2023-10-19T12:58:47;18.50;99.90
37938;DHT22;23763;48.130;11.602;2023-10-19T13:01:14;18.30;99.90
37938;DHT22;23763;48.130;11.602;2023-10-19T13:03:45;18.20;99.90
37938;DHT22;23763;48.130;11.602;2023-10-19T13:06:12;17.90;99.90
37938;DHT22;23763;48.130;11.602;2023-10-19T13:08:38;17.80;99.90
37938;DHT22;23763;48.130;11.602;2023-10-19T13:11:09;17.90;99.90
37938;DHT22;23763;48.130;11.602;2023-10-19T13:13:40;18.00;99.90
37938;DHT22;23763;48.130;11.602;2023-10-19T13:16:06;18.00;99.90
37938;DHT22;23763;48.130;11.602;2023-10-19T13:18:35;18.10;99.90
37938;DHT22;23763;48.130;11.602;2023-10-19T13:21:01;18.10;99.90
37938;DHT22;23763;48.130;11.602;2023-10-19T13:23:37;18.10;99.90
37938;DHT22;23763;48.130;11.602;2023-10-19T13:26:03;18.10;99.90
37938;DHT22;23763;48.130;11.602;2023-10-19T13:28:45;18.10;99.90
37938;DHT22;23763;48.130;11.602;2023-10-19T13:31:12;18.10;99.90
37938;DHT22;23763;48.130;11.602;2023-10-19T13:33:41;18.10;99.90
37938;DHT22;23763;48.130;11.602;2023-10-19T13:36:07;18.20;99.90
37938;DHT22;23763;48.130;11.602;2023-10-19T13:38:33;18.20;99.90
37938;DHT22;23763;48.130;11.602;2023-10-19T13:40:59;18.30;99.90
37938;DHT22;23763;48.130;11.602;2023-10-19T13:43:24;18.30;99.90
37938;DHT22;23763;48.130;11.602;2023-10-19T13:45:50;18.30;99.90
37938;DHT22;23763;48.130;11.602;2023-10-19T13:48:18;18.20;99.90
37938;DHT22;23763;48.130;11.602;2023-10-19T13:50:48;18.10;99.90
37938;DHT22;23763;48.130;11.602;2023-10-19T13:53:15;18.00;99.90
37938;DHT22;23763;48.130;11.602;2023-10-19T13:55:41;18.00;99.90
37938;DHT22;23763;48.130;11.602;2023-10-19T13:58:07;17.90;99.90
37938;DHT22;23763;48.130;11.602;2023-10-19T14:00:33;17.80;99.90
37938;DHT22;23763;48.130;11.602;2023-10-19T14:02:59;17.70;99.90
37938;DHT22;23763;48.130;11.602;2023-10-19T14:05:26;17.60;99.90
37938;DHT22;23763;48.130;11.602;2023-10-19T14:07:52;17.50;99.90
37938;DHT22;23763;48.130;11.602;2023-10-19T14:10:18;17.40;99.90
37938;DHT22;23763;48.130;11.602;2023-10-19T14:12:45;17.30;99.90
37938;DHT22;23763;48.130;11.602;2023-10-19T14:15:12;17.30;99.90
37938;DHT22;23763;48.130;11.602;2023-10-19T14:17:38;17.20;99.90
37938;DHT22;23763;48.130;11.602;2023-10-19T14:20:05;17.10;99.90
37938;DHT22;23763;48.130;11.602;2023-10-19T14:22:31;17.10;99.90
37938;DHT22;23763;48.130;11.602;2023-10-19T14:25:00;17.10;99.90
37938;DHT22;23763;48.130;11.602;2023-10-19T14:27:26;17.00;99.90
37938;DHT22;23763;48.130;11.602;2023-10-19T14:29:51;16.90;99.90
37938;DHT22;23763;48.130;11.602;2023-10-19T14:32:17;16.90;99.90
37938;DHT22;23763;48.130;11.602;2023-10-19T14:34:42;16.90;99.90
37938;DHT22;23763;48.130;11.602;2023-10-19T14:37:08;17.00;99.90
37938;DHT22;23763;48.130;11.602;2023-10-19T14:39:34;17.10;99.90
37938;DHT22;23763;48.130;11.602;2023-10-19T14:41:59;17.10;99.90
37938;DHT22;23763;48.130;11.602;2023-10-19T14:44:25;16.90;99.90
37938;DHT22;23763;48.130;11.602;2023-10-19T14:46:52;16.90;99.90
37938;DHT22;23763;48.130;11.602;2023-10-19T14:49:18;16.80;99.90
37938;DHT22;23763;48.130;11.602;2023-10-19T14:51:44;16.80;99.90
37938;DHT22;23763;48.130;11.602;2023-10-19T14:54:09;16.70;99.90
37938;DHT22;23763;48.130;11.602;2023-10-19T14:56:36;16.80;99.90
37938;DHT22;23763;48.130;11.602;2023-10-19T14:59:02;16.80;99.90
37938;DHT22;23763;48.130;11.602;2023-10-19T15:01:30;16.80;99.90
37938;DHT22;23763;48.130;11.602;2023-10-19T15:03:56;16.70;99.90
37938;DHT22;23763;48.130;11.602;2023-10-19T15:06:22;16.60;99.90
37938;DHT22;23763;48.130;11.602;2023-10-19T15:08:47;16.50;99.90
37938;DHT22;23763;48.130;11.602;2023-10-19T15:11:17;16.40;99.90
37938;DHT22;23763;48.130;11.602;2023-10-19T15:13:43;16.30;99.90
37938;DHT22;23763;48.130;11.602;2023-10-19T15:16:09;16.20;99.90
37938;DHT22;23763;48.130;11.602;2023-10-19T15:18:35;16.10;99.90
37938;DHT22;23763;48.130;11.602;2023-10-19T15:21:11;16.10;99.90
37938;DHT22;23763;48.130;11.602;2023-10-19T15:23:39;16.10;99.90
37938;DHT22;23763;48.130;11.602;2023-10-19T15:26:06;16.00;99.90
37938;DHT22;23763;48.130;11.602;2023-10-19T15:28:32;16.10;99.90
37938;DHT22;23763;48.130;11.602;2023-10-19T15:31:01;16.00;99.90
37938;DHT22;23763;48.130;11.602;2023-10-19T15:33:27;15.90;99.90
37938;DHT22;23763;48.130;11.602;2023-10-19T15:35:56;15.90;99.90